Time;durP1;ratioP1;P1;durP2;ratioP2;P2;SDS_P1;SDS_P2;PMS_P1;PMS_P2;Temp;Humidity;BMP_temperature;BMP_pressure;BME280_temperature;BME280_humidity;BME280_pressure;Samples;Min_cycle;Max_cycle;Signal;HPM_P1;HPM_P2
2024/03/21 00:01:40;;;;;;;0.75;0.75;;;2.10;99.90;;;;;;5094559;28;20200;-77
2024/03/21 00:04:06;;;;;;;0.60;0.60;;;2.10;99.90;;;;;;5094573;28;20208;-77
2024/03/21 00:06:32;;;;;;;0.80;0.80;;;2.10;99.90;;;;;;5094409;28;20205;-77
2024/03/21 00:08:57;;;;;;;0.70;0.70;;;2.10;99.90;;;;;;5094428;28;20200;-78
2024/03/21 00:11:23;;;;;;;0.70;0.70;;;2.20;99.90;;;;;;5094220;28;20196;-78
2024/03/21 00:13:52;;;;;;;0.70;0.70;;;2.20;99.90;;;;;;5094728;28;20200;-77
2024/03/21 00:16:17;;;;;;;0.50;0.50;;;2.20;99.90;;;;;;5094122;28;20191;-77
2024/03/21 00:18:46;;;;;;;0.70;0.70;;;2.20;99.90;;;;;;5094151;28;20208;-77
2024/03/21 00:21:14;;;;;;;0.70;0.70;;;2.20;99.90;;;;;;5094078;28;20211;-77
2024/03/21 00:23:39;;;;;;;0.57;0.57;;;2.20;99.90;;;;;;5093720;28;20675;-77
2024/03/21 00:26:14;;;;;;;0.80;0.80;;;2.10;99.90;;;;;;5094449;28;20230;-77
2024/03/21 00:28:43;;;;;;;0.70;0.70;;;2.10;99.90;;;;;;5094046;28;20204;-77
2024/03/21 00:31:12;;;;;;;0.80;0.80;;;2.10;99.90;;;;;;5087088;28;20691;-77
2024/03/21 00:33:48;;;;;;;0.60;0.60;;;2.00;99.90;;;;;;5073910;28;20661;-77
2024/03/21 00:36:18;;;;;;;0.60;0.60;;;1.90;99.90;;;;;;5073343;28;20216;-77
2024/03/21 00:38:43;;;;;;;0.90;0.90;;;1.90;99.90;;;;;;5072134;28;20204;-77
2024/03/21 00:41:10;;;;;;;0.70;0.70;;;1.90;99.90;;;;;;5073531;28;20208;-77
2024/03/21 00:43:36;;;;;;;0.80;0.80;;;1.90;99.90;;;;;;5073223;28;20250;-77
2024/03/21 00:46:02;;;;;;;0.60;0.60;;;1.90;99.90;;;;;;5072155;28;20236;-77
2024/03/21 00:48:27;;;;;;;0.70;0.70;;;1.80;99.90;;;;;;5073256;28;20211;-77
2024/03/21 00:50:53;;;;;;;0.75;0.75;;;1.80;99.90;;;;;;5073476;28;20291;-77
2024/03/21 00:53:21;;;;;;;0.70;0.70;;;1.70;99.90;;;;;;5073141;28;20219;-78
2024/03/21 00:55:50;;;;;;;0.80;0.80;;;1.70;99.90;;;;;;5073158;28;20251;-76
2024/03/21 00:58:15;;;;;;;0.70;0.70;;;1.80;99.90;;;;;;5073321;28;20203;-77
2024/03/21 01:00:41;;;;;;;0.70;0.70;;;1.70;99.90;;;;;;5073220;28;20291;-77
2024/03/21 01:03:09;;;;;;;0.65;0.65;;;1.80;99.90;;;;;;5073041;28;20621;-77
2024/03/21 01:05:35;;;;;;;0.80;0.80;;;1.80;99.90;;;;;;5071166;28;20248;-77
2024/03/21 01:08:04;;;;;;;0.70;0.70;;;1.80;99.90;;;;;;5073016;28;20200;-77
2024/03/21 01:10:32;;;;;;;0.60;0.60;;;1.80;99.90;;;;;;5072992;28;20203;-77
2024/03/21 01:12:58;;;;;;;0.60;0.60;;;1.80;99.90;;;;;;5074632;28;20193;-77
2024/03/21 01:15:24;;;;;;;0.70;0.70;;;1.80;99.90;;;;;;5092967;28;20203;-77
2024/03/21 01:17:51;;;;;;;0.68;0.68;;;1.80;99.90;;;;;;5093671;28;20253;-77
2024/03/21 01:20:20;;;;;;;0.70;0.70;;;1.80;99.90;;;;;;5091368;28;20211;-77
2024/03/21 01:22:46;;;;;;;0.60;0.60;;;1.80;99.90;;;;;;5071423;28;20208;-78
2024/03/21 01:25:11;;;;;;;0.70;0.70;;;1.90;99.90;;;;;;5071535;28;20224;-77
2024/03/21 01:27:37;;;;;;;0.70;0.70;;;1.90;99.90;;;;;;5071081;28;20253;-77
2024/03/21 01:30:03;;;;;;;0.57;0.57;;;1.90;99.90;;;;;;5072882;28;20208;-77
2024/03/21 01:32:31;;;;;;;0.60;0.60;;;1.90;99.90;;;;;;5072530;28;20205;-77
2024/03/21 01:34:57;;;;;;;0.70;0.70;;;1.90;99.90;;;;;;5071435;28;20204;-77
2024/03/21 01:37:22;;;;;;;0.70;0.70;;;1.90;99.90;;;;;;5072570;28;20208;-77
2024/03/21 01:39:48;;;;;;;0.60;0.60;;;1.90;99.90;;;;;;5072656;28;20200;-77
2024/03/21 01:42:18;;;;;;;0.65;0.65;;;1.80;99.90;;;;;;5072381;28;20200;-77
2024/03/21 01:45:10;;;;;;;0.70;0.70;;;1.80;99.90;;;;;;5072444;28;20215;-77
2024/03/21 01:47:36;;;;;;;1.02;0.98;;;1.90;99.90;;;;;;5048383;28;20201;-77
2024/03/21 01:50:06;;;;;;;0.70;0.70;;;1.90;99.90;;;;;;5071267;28;20201;-77
2024/03/21 01:52:35;;;;;;;1.33;1.23;;;1.90;99.90;;;;;;5072476;28;20606;-77
2024/03/21 01:55:01;;;;;;;0.70;0.70;;;1.80;99.90;;;;;;5072500;28;20239;-77
2024/03/21 01:57:27;;;;;;;0.60;0.60;;;1.90;99.90;;;;;;5072365;28;20258;-77
2024/03/21 01:59:58;;;;;;;0.60;0.60;;;1.90;99.90;;;;;;5072691;28;20209;-77
2024/03/21 02:02:26;;;;;;;0.88;0.88;;;1.90;99.90;;;;;;5071406;28;20224;-77
2024/03/21 02:04:53;;;;;;;0.50;0.50;;;1.90;99.90;;;;;;5071042;28;20342;-77
2024/03/21 02:07:18;;;;;;;0.68;0.68;;;1.90;99.90;;;;;;5085573;28;20204;-77
2024/03/21 02:09:45;;;;;;;0.80;0.80;;;1.90;99.90;;;;;;5092079;28;20208;-76
2024/03/21 02:12:11;;;;;;;0.55;0.55;;;1.90;99.90;;;;;;5092667;28;20275;-77
2024/03/21 02:14:38;;;;;;;0.63;0.63;;;1.90;99.90;;;;;;5090866;28;20312;-77
2024/03/21 02:17:04;;;;;;;0.70;0.70;;;1.90;99.90;;;;;;5092332;28;20200;-77
2024/03/21 02:19:31;;;;;;;0.70;0.70;;;2.00;99.90;;;;;;5092581;28;20549;-77
2024/03/21 02:25:18;;;;;;;0.55;0.55;;;1.90;99.90;;;;;;5083236;28;20226;-77
2024/03/21 02:27:43;;;;;;;0.60;0.60;;;1.90;99.90;;;;;;5092319;28;20196;-77
2024/03/21 02:30:10;;;;;;;0.70;0.70;;;2.00;99.90;;;;;;5092595;28;20261;-77
2024/03/21 02:32:37;;;;;;;0.60;0.60;;;2.00;99.90;;;;;;5092301;28;20629;-76
2024/03/21 02:35:04;;;;;;;0.80;0.80;;;1.90;99.90;;;;;;5092917;28;20223;-77
2024/03/21 02:37:30;;;;;;;0.80;0.80;;;2.00;99.90;;;;;;5092728;28;20204;-78
2024/03/21 02:39:56;;;;;;;0.60;0.60;;;2.00;99.90;;;;;;5092310;28;20201;-77
2024/03/21 02:42:25;;;;;;;0.57;0.57;;;2.00;99.90;;;;;;5091652;28;20204;-77
2024/03/21 02:44:51;;;;;;;0.73;0.73;;;2.00;99.90;;;;;;5090556;28;20212;-77
2024/03/21 02:47:20;;;;;;;0.70;0.70;;;2.00;99.90;;;;;;5090682;28;20207;-77
2024/03/21 02:49:46;;;;;;;0.60;0.60;;;2.00;99.90;;;;;;5092114;28;20589;-77
2024/03/21 02:52:12;;;;;;;0.60;0.60;;;2.00;99.90;;;;;;5091536;28;20211;-77
2024/03/21 02:54:37;;;;;;;0.80;0.80;;;2.00;99.90;;;;;;5090845;28;20200;-77
2024/03/21 02:57:09;;;;;;;0.60;0.60;;;2.00;99.90;;;;;;5092229;28;20660;-77
2024/03/21 02:59:35;;;;;;;0.70;0.70;;;2.00;99.90;;;;;;5092937;28;20208;-77
2024/03/21 03:02:05;;;;;;;0.60;0.60;;;2.00;99.90;;;;;;5094421;28;20733;-77
2024/03/21 03:04:32;;;;;;;0.70;0.70;;;2.00;99.90;;;;;;5074813;28;20217;-77
2024/03/21 03:06:58;;;;;;;0.60;0.60;;;2.00;99.90;;;;;;5062843;28;20301;-78
2024/03/21 03:09:27;;;;;;;0.70;0.70;;;2.00;99.90;;;;;;5073941;28;20296;-78
2024/03/21 03:11:53;;;;;;;0.70;0.70;;;2.00;99.90;;;;;;5075239;28;20197;-77
2024/03/21 03:14:24;;;;;;;0.70;0.70;;;2.00;99.90;;;;;;5075338;28;20595;-77
2024/03/21 03:16:49;;;;;;;1.30;1.08;;;1.90;99.90;;;;;;5075186;28;20681;-77
2024/03/21 03:19:15;;;;;;;0.68;0.68;;;2.00;99.90;;;;;;5080437;28;20197;-77
2024/03/21 03:21:41;;;;;;;0.60;0.60;;;2.00;99.90;;;;;;5088629;28;20213;-77
2024/03/21 03:24:07;;;;;;;0.70;0.70;;;2.00;99.90;;;;;;5082107;28;20300;-77
2024/03/21 03:26:38;;;;;;;0.60;0.60;;;2.00;99.90;;;;;;5083344;28;20208;-77
2024/03/21 03:29:04;;;;;;;0.60;0.60;;;2.00;99.90;;;;;;5080009;28;20234;-78
2024/03/21 03:31:30;;;;;;;0.63;0.63;;;2.00;99.90;;;;;;5080836;28;20275;-77
2024/03/21 03:36:53;;;;;;;0.70;0.70;;;1.90;99.90;;;;;;5080918;28;20200;-77
2024/03/21 03:39:19;;;;;;;0.57;0.57;;;1.90;99.90;;;;;;5081070;28;20227;-77
2024/03/21 03:41:44;;;;;;;0.60;0.60;;;1.90;99.90;;;;;;5089850;28;20200;-77
2024/03/21 03:44:16;;;;;;;0.63;0.63;;;1.90;99.90;;;;;;5101032;28;20240;-77
2024/03/21 03:46:42;;;;;;;0.60;0.60;;;1.80;99.90;;;;;;5102478;28;20215;-76
2024/03/21 03:49:11;;;;;;;0.60;0.60;;;1.90;99.90;;;;;;5102190;28;20599;-77
2024/03/21 03:51:37;;;;;;;0.70;0.70;;;1.80;99.90;;;;;;5103273;28;20230;-77
2024/03/21 03:54:02;;;;;;;0.63;0.63;;;1.80;99.90;;;;;;5102814;28;20200;-77
2024/03/21 03:56:28;;;;;;;0.60;0.60;;;1.80;99.90;;;;;;5102388;28;20624;-77
2024/03/21 03:58:54;;;;;;;0.70;0.70;;;1.80;99.90;;;;;;5097028;28;20203;-77
2024/03/21 04:01:19;;;;;;;0.60;0.60;;;1.70;99.90;;;;;;5089539;28;20209;-77
2024/03/21 04:03:45;;;;;;;0.70;0.70;;;1.60;99.90;;;;;;5096697;28;20279;-77
2024/03/21 04:06:11;;;;;;;0.60;0.60;;;1.60;99.90;;;;;;5099162;28;20211;-77
2024/03/21 04:08:36;;;;;;;0.60;0.60;;;1.50;99.90;;;;;;5096468;28;20204;-77
2024/03/21 04:11:02;;;;;;;0.70;0.70;;;1.50;99.90;;;;;;5095868;28;20188;-76
2024/03/21 04:13:28;;;;;;;0.50;0.50;;;1.50;99.90;;;;;;5097746;28;20663;-76
2024/03/21 04:15:55;;;;;;;0.60;0.60;;;1.50;99.90;;;;;;5098085;28;20656;-76
2024/03/21 04:18:21;;;;;;;0.70;0.70;;;1.50;99.90;;;;;;5098307;28;20782;-77
2024/03/21 04:20:50;;;;;;;0.75;0.75;;;1.50;99.90;;;;;;5090398;28;20193;-77
2024/03/21 04:23:16;;;;;;;0.60;0.60;;;1.50;99.90;;;;;;5078448;28;20205;-76
2024/03/21 04:25:41;;;;;;;0.60;0.60;;;1.60;99.90;;;;;;5078187;28;20227;-77
2024/03/21 04:28:07;;;;;;;0.60;0.60;;;1.60;99.90;;;;;;5074638;28;20215;-78
2024/03/21 04:30:33;;;;;;;0.77;0.77;;;1.60;99.90;;;;;;5074008;28;20224;-77
2024/03/21 04:32:59;;;;;;;0.60;0.60;;;1.60;99.90;;;;;;5073985;28;20255;-76
2024/03/21 04:35:26;;;;;;;0.60;0.60;;;1.60;99.90;;;;;;5074256;28;20204;-77
2024/03/21 04:37:51;;;;;;;0.70;0.70;;;1.60;99.90;;;;;;5073828;28;20196;-76
2024/03/21 04:40:17;;;;;;;0.60;0.60;;;1.60;99.90;;;;;;5073260;28;20616;-78
2024/03/21 04:42:43;;;;;;;0.63;0.63;;;1.60;99.90;;;;;;5074014;28;20254;-76
2024/03/21 04:45:09;;;;;;;0.70;0.70;;;1.60;99.90;;;;;;5073617;28;20247;-76
2024/03/21 04:47:34;;;;;;;0.60;0.60;;;1.50;99.90;;;;;;5073290;28;20197;-76
2024/03/21 04:50:00;;;;;;;0.63;0.63;;;1.60;99.90;;;;;;5072140;28;20201;-76
2024/03/21 04:52:27;;;;;;;0.77;0.77;;;1.60;99.90;;;;;;5073379;28;20197;-76
2024/03/21 04:54:53;;;;;;;0.70;0.70;;;1.60;99.90;;;;;;5075505;28;20197;-77
2024/03/21 04:57:19;;;;;;;0.70;0.70;;;1.60;99.90;;;;;;5093558;28;20208;-75
2024/03/21 04:59:45;;;;;;;0.60;0.60;;;1.60;99.90;;;;;;5093675;28;20294;-76
2024/03/21 05:02:10;;;;;;;0.55;0.55;;;1.60;99.90;;;;;;5095777;28;20228;-74
2024/03/21 05:04:36;;;;;;;0.70;0.70;;;1.60;99.90;;;;;;5098982;28;20254;-76
2024/03/21 05:07:02;;;;;;;0.73;0.73;;;1.60;99.90;;;;;;5099716;28;20191;-77
2024/03/21 05:09:28;;;;;;;0.68;0.68;;;1.60;99.90;;;;;;5101438;28;20184;-77
2024/03/21 05:11:54;;;;;;;0.70;0.70;;;1.70;99.90;;;;;;5101473;28;20225;-76
2024/03/21 05:14:19;;;;;;;0.60;0.60;;;1.70;99.90;;;;;;5081083;28;20258;-76
2024/03/21 05:16:45;;;;;;;0.65;0.65;;;1.70;99.90;;;;;;5079501;28;20258;-77
2024/03/21 05:19:11;;;;;;;0.90;0.90;;;1.70;99.90;;;;;;5078926;28;20262;-75
2024/03/21 05:21:37;;;;;;;0.65;0.65;;;1.80;99.90;;;;;;5074637;28;20209;-75
2024/03/21 05:24:03;;;;;;;0.70;0.70;;;1.80;99.90;;;;;;5076266;28;20286;-77
2024/03/21 05:26:30;;;;;;;0.60;0.60;;;1.80;99.90;;;;;;5073091;28;20281;-77
2024/03/21 05:28:56;;;;;;;0.55;0.55;;;1.80;99.90;;;;;;5072968;28;20189;-77
2024/03/21 05:31:26;;;;;;;0.70;0.70;;;1.80;99.90;;;;;;5072766;28;20767;-77
2024/03/21 05:33:53;;;;;;;0.60;0.60;;;1.80;99.90;;;;;;5073100;28;20726;-77
2024/03/21 05:36:21;;;;;;;0.60;0.60;;;1.70;99.90;;;;;;5073898;28;20195;-77
2024/03/21 05:38:47;;;;;;;0.70;0.70;;;1.70;99.90;;;;;;5074192;28;20197;-77
2024/03/21 05:41:13;;;;;;;0.60;0.60;;;1.70;99.90;;;;;;5073084;28;20199;-77
2024/03/21 05:43:39;;;;;;;0.60;0.60;;;1.80;99.90;;;;;;5071754;28;20212;-76
2024/03/21 05:46:05;;;;;;;0.60;0.60;;;1.80;99.90;;;;;;5072830;28;20588;-76
2024/03/21 05:48:34;;;;;;;0.68;0.68;;;1.80;99.90;;;;;;5072906;28;20200;-76
2024/03/21 05:51:01;;;;;;;0.70;0.70;;;1.80;99.90;;;;;;5073648;28;20233;-76
2024/03/21 05:53:27;;;;;;;0.70;0.70;;;1.90;99.90;;;;;;5092571;28;20694;-76
2024/03/21 05:56:07;;;;;;;0.60;0.60;;;1.90;99.90;;;;;;5092767;28;20219;-76
2024/03/21 05:58:34;;;;;;;1.38;0.85;;;2.00;99.90;;;;;;5091699;28;20204;-77
2024/03/21 06:01:43;;;;;;;1.00;0.95;;;2.00;99.90;;;;;;5092623;28;20277;-76
2024/03/21 06:03:51;;;;;;;0.82;0.82;;;2.00;99.90;;;;;;5086909;28;20199;-75
2024/03/21 06:06:16;;;;;;;0.50;0.50;;;2.00;99.90;;;;;;5091158;28;20265;-76
2024/03/21 06:08:45;;;;;;;0.68;0.68;;;2.10;99.90;;;;;;5085105;28;20608;-75
2024/03/21 06:11:11;;;;;;;0.60;0.60;;;2.10;99.90;;;;;;5072319;28;20192;-76
2024/03/21 06:13:36;;;;;;;0.80;0.80;;;2.10;99.90;;;;;;5072209;28;20276;-76
2024/03/21 06:16:02;;;;;;;4.97;1.17;;;2.10;99.90;;;;;;5072516;28;20528;-76
2024/03/21 06:18:28;;;;;;;0.60;0.60;;;2.00;99.90;;;;;;5072216;28;20232;-76
2024/03/21 06:20:54;;;;;;;0.60;0.60;;;1.90;99.90;;;;;;5072092;28;20197;-76
2024/03/21 06:23:19;;;;;;;0.70;0.70;;;1.90;99.90;;;;;;5072378;28;20563;-75
2024/03/21 06:25:45;;;;;;;1.23;1.13;;;1.90;99.90;;;;;;5072447;28;20221;-75
2024/03/21 06:28:11;;;;;;;0.70;0.70;;;1.90;99.90;;;;;;5072288;28;20221;-76
2024/03/21 06:30:37;;;;;;;0.57;0.57;;;2.00;99.90;;;;;;5072356;28;20246;-76
2024/03/21 06:33:03;;;;;;;0.60;0.60;;;2.10;99.90;;;;;;5072364;28;20567;-76
2024/03/21 06:35:29;;;;;;;0.50;0.50;;;2.20;99.90;;;;;;5075945;28;20258;-76
2024/03/21 06:37:56;;;;;;;0.88;0.88;;;2.20;99.90;;;;;;5074644;28;20204;-76
2024/03/21 06:40:23;;;;;;;0.70;0.70;;;2.30;99.90;;;;;;5075846;28;20688;-75
2024/03/21 06:42:49;;;;;;;0.93;0.93;;;2.30;99.90;;;;;;5074646;28;20230;-76
2024/03/21 06:45:15;;;;;;;0.60;0.60;;;2.30;99.90;;;;;;5075893;28;20224;-77
2024/03/21 06:47:47;;;;;;;0.70;0.70;;;2.40;99.90;;;;;;5080426;28;20204;-75
2024/03/21 06:50:17;;;;;;;0.70;0.70;;;2.50;99.90;;;;;;5096083;28;20326;-75
2024/03/21 06:52:47;;;;;;;1.52;1.42;;;2.50;99.90;;;;;;5095863;28;20216;-75
2024/03/21 06:55:13;;;;;;;0.65;0.65;;;2.50;99.90;;;;;;5095868;28;20200;-76
2024/03/21 06:57:42;;;;;;;0.70;0.70;;;2.60;99.90;;;;;;5095748;28;20660;-75
2024/03/21 07:00:19;;;;;;;0.60;0.60;;;2.60;99.90;;;;;;5096184;28;20294;-75
2024/03/21 07:02:44;;;;;;;0.63;0.63;;;2.60;99.90;;;;;;5095664;28;20208;-76
2024/03/21 07:05:11;;;;;;;0.50;0.50;;;2.70;99.90;;;;;;5095305;28;20554;-75
2024/03/21 07:07:38;;;;;;;1.05;1.02;;;2.70;99.90;;;;;;5095522;28;20195;-76
2024/03/21 07:10:04;;;;;;;1.40;1.33;;;2.80;99.90;;;;;;5095756;28;20200;-76
2024/03/21 07:12:31;;;;;;;1.52;1.42;;;2.80;99.90;;;;;;5095430;28;20188;-76
2024/03/21 07:14:57;;;;;;;1.95;1.85;;;2.90;99.90;;;;;;5095627;28;20270;-76
2024/03/21 07:17:57;;;;;;;3.00;2.45;;;3.00;99.90;;;;;;5093949;28;20208;-76
2024/03/21 07:20:23;;;;;;;1.55;1.45;;;3.00;99.90;;;;;;5092860;28;20218;-76
2024/03/21 07:22:49;;;;;;;0.60;0.60;;;3.00;99.90;;;;;;5073898;28;20215;-76
2024/03/21 07:25:15;;;;;;;0.70;0.70;;;3.10;99.90;;;;;;5073785;28;20254;-75
2024/03/21 07:27:42;;;;;;;0.70;0.70;;;3.10;99.90;;;;;;5074936;28;20201;-76
2024/03/21 07:30:11;;;;;;;0.60;0.60;;;3.10;99.90;;;;;;5075248;28;20219;-76
2024/03/21 07:32:37;;;;;;;0.60;0.60;;;3.10;99.90;;;;;;5074933;28;20196;-76
2024/03/21 07:35:03;;;;;;;0.60;0.60;;;3.10;99.90;;;;;;5075122;28;20288;-76
2024/03/21 07:37:29;;;;;;;0.80;0.80;;;3.20;99.90;;;;;;5074707;28;20653;-77
2024/03/21 07:39:55;;;;;;;5.00;2.67;;;3.20;99.90;;;;;;5089629;28;20200;-76
2024/03/21 07:42:21;;;;;;;1.40;1.30;;;3.20;99.90;;;;;;5092949;28;20237;-76
2024/03/21 07:44:46;;;;;;;1.67;1.60;;;3.30;99.90;;;;;;5093977;28;20220;-76
2024/03/21 07:47:12;;;;;;;1.10;1.10;;;3.30;99.90;;;;;;5093300;28;20204;-76
2024/03/21 07:49:40;;;;;;;6.63;1.35;;;3.40;99.90;;;;;;5094726;28;20655;-76
2024/03/21 07:52:05;;;;;;;11.88;6.53;;;3.40;99.90;;;;;;5095024;28;20192;-76
2024/03/21 07:54:34;;;;;;;1.00;1.00;;;3.40;99.90;;;;;;5093311;28;20219;-76
2024/03/21 07:57:00;;;;;;;1.10;1.10;;;3.50;99.90;;;;;;5094773;28;20671;-76
2024/03/21 07:59:25;;;;;;;0.85;0.85;;;3.50;99.90;;;;;;5094641;28;20196;-76
2024/03/21 08:01:52;;;;;;;0.60;0.60;;;3.60;99.90;;;;;;5094614;28;20197;-76
2024/03/21 08:04:17;;;;;;;1.00;1.00;;;3.70;99.90;;;;;;5093048;28;20299;-77
2024/03/21 08:06:45;;;;;;;3.78;3.30;;;3.80;99.90;;;;;;5093158;28;20354;-76
2024/03/21 08:09:11;;;;;;;2.75;1.50;;;3.90;99.90;;;;;;5093503;28;20205;-80
2024/03/21 08:11:36;;;;;;;1.70;1.25;;;4.00;99.90;;;;;;5094702;28;20275;-81
2024/03/21 08:14:02;;;;;;;0.80;0.80;;;4.00;99.90;;;;;;5094541;28;20253;-80
2024/03/21 08:16:28;;;;;;;0.68;0.68;;;4.10;99.90;;;;;;5094578;28;20280;-80
2024/03/21 08:18:54;;;;;;;1.58;1.48;;;4.10;99.90;;;;;;5094414;28;20686;-80
2024/03/21 08:21:21;;;;;;;5.43;1.52;;;4.10;99.90;;;;;;5085176;28;20192;-79
2024/03/21 08:23:47;;;;;;;1.30;1.23;;;4.10;99.90;;;;;;5074241;28;20648;-80
2024/03/21 08:26:13;;;;;;;1.00;1.00;;;4.10;99.90;;;;;;5073295;28;20286;-80
2024/03/21 08:28:39;;;;;;;0.82;0.82;;;4.20;99.90;;;;;;5074083;28;20667;-80
2024/03/21 08:31:04;;;;;;;0.80;0.80;;;4.20;99.90;;;;;;5072956;28;20263;-80
2024/03/21 08:33:30;;;;;;;0.60;0.60;;;4.20;99.90;;;;;;5074160;28;20223;-80
2024/03/21 08:35:56;;;;;;;0.70;0.70;;;4.10;99.90;;;;;;5074746;28;20668;-80
2024/03/21 08:38:22;;;;;;;1.13;1.02;;;4.20;99.90;;;;;;5076180;28;20211;-79
2024/03/21 08:40:54;;;;;;;1.02;1.02;;;4.20;99.90;;;;;;5084232;28;20567;-80
2024/03/21 08:43:21;;;;;;;0.80;0.80;;;4.30;99.90;;;;;;5095510;28;20208;-80
2024/03/21 08:45:48;;;;;;;0.90;0.90;;;4.40;99.90;;;;;;5095507;28;20319;-80
2024/03/21 08:48:14;;;;;;;1.25;1.15;;;4.60;99.90;;;;;;5096746;28;20200;-80
2024/03/21 08:50:41;;;;;;;0.98;0.98;;;4.60;99.90;;;;;;5095846;28;20211;-80
2024/03/21 08:53:07;;;;;;;0.60;0.60;;;4.60;99.90;;;;;;5095663;28;20203;-80
2024/03/21 08:55:36;;;;;;;0.70;0.70;;;4.70;99.90;;;;;;5098914;28;20196;-80
2024/03/21 08:58:05;;;;;;;0.70;0.70;;;4.80;99.90;;;;;;5099745;28;20201;-80
2024/03/21 09:00:34;;;;;;;0.60;0.60;;;4.90;99.90;;;;;;5098036;28;20226;-77
2024/03/21 09:03:00;;;;;;;0.80;0.80;;;5.00;99.90;;;;;;5096562;28;20567;-80
2024/03/21 09:05:27;;;;;;;0.70;0.70;;;5.20;99.90;;;;;;5094447;28;20559;-80
2024/03/21 09:07:53;;;;;;;0.70;0.70;;;5.20;99.90;;;;;;5095267;28;20271;-79
2024/03/21 09:10:19;;;;;;;0.60;0.60;;;5.30;99.90;;;;;;5095530;28;20254;-79
2024/03/21 09:12:45;;;;;;;0.70;0.70;;;5.30;99.90;;;;;;5094134;28;20201;-80
2024/03/21 09:15:16;;;;;;;0.68;0.68;;;5.40;99.90;;;;;;5093072;28;20570;-80
2024/03/21 09:17:42;;;;;;;0.60;0.60;;;5.40;99.90;;;;;;5096948;28;20193;-80
2024/03/21 09:20:08;;;;;;;0.60;0.60;;;5.40;99.90;;;;;;5094400;28;20207;-76
2024/03/21 09:22:39;;;;;;;0.68;0.68;;;5.40;99.90;;;;;;5092973;28;20655;-77
2024/03/21 09:25:05;;;;;;;0.60;0.60;;;5.40;99.90;;;;;;5091874;28;20230;-76
2024/03/21 09:27:32;;;;;;;0.68;0.68;;;5.30;99.90;;;;;;5093483;28;20559;-75
2024/03/21 09:29:58;;;;;;;0.70;0.70;;;5.40;99.90;;;;;;5093197;28;20203;-76
2024/03/21 09:32:25;;;;;;;0.70;0.70;;;5.30;99.90;;;;;;5092111;28;20614;-76
2024/03/21 09:34:53;;;;;;;0.70;0.70;;;5.30;99.90;;;;;;5092374;28;20212;-76
2024/03/21 09:37:20;;;;;;;0.60;0.60;;;5.40;99.90;;;;;;5092676;28;20298;-76
2024/03/21 09:39:46;;;;;;;0.60;0.60;;;5.40;99.90;;;;;;5093721;28;20675;-76
2024/03/21 09:42:21;;;;;;;0.60;0.60;;;5.50;99.90;;;;;;5093033;28;20215;-76
2024/03/21 09:44:48;;;;;;;0.73;0.73;;;5.50;99.90;;;;;;5093074;28;20221;-76
2024/03/21 09:47:19;;;;;;;0.70;0.70;;;5.50;99.90;;;;;;5091971;28;20669;-76
2024/03/21 09:49:46;;;;;;;0.60;0.60;;;5.60;99.90;;;;;;5091991;28;20593;-77
2024/03/21 09:52:13;;;;;;;0.70;0.70;;;5.70;99.90;;;;;;5093197;28;20188;-76
2024/03/21 09:54:38;;;;;;;1.30;1.20;;;5.80;99.90;;;;;;5091420;28;20764;-76
2024/03/21 09:57:08;;;;;;;0.77;0.77;;;5.80;99.90;;;;;;5093060;28;20261;-76
2024/03/21 09:59:34;;;;;;;0.90;0.90;;;5.90;99.90;;;;;;5092803;28;20215;-76
2024/03/21 10:01:59;;;;;;;0.70;0.70;;;6.00;99.90;;;;;;5092969;28;20196;-76
2024/03/21 10:04:25;;;;;;;0.70;0.70;;;6.00;99.90;;;;;;5091137;28;20228;-75
2024/03/21 10:06:51;;;;;;;0.95;0.95;;;6.00;99.90;;;;;;5093114;28;20207;-76
2024/03/21 10:09:17;;;;;;;0.70;0.70;;;6.20;99.90;;;;;;5095262;28;20245;-76
2024/03/21 10:11:42;;;;;;;0.70;0.70;;;6.20;99.90;;;;;;5097044;28;20202;-76
2024/03/21 10:14:12;;;;;;;0.70;0.70;;;6.20;99.90;;;;;;5096976;28;20204;-76
2024/03/21 10:16:40;;;;;;;0.60;0.60;;;6.20;99.90;;;;;;5096460;28;20200;-76
2024/03/21 10:19:08;;;;;;;0.60;0.60;;;6.10;99.90;;;;;;5097045;28;20204;-75
2024/03/21 10:21:34;;;;;;;0.70;0.70;;;6.20;99.90;;;;;;5096780;28;20288;-76
2024/03/21 10:24:04;;;;;;;0.70;0.70;;;6.30;99.90;;;;;;5096667;28;20203;-76
2024/03/21 10:26:30;;;;;;;0.60;0.60;;;6.30;99.90;;;;;;5096660;28;20208;-75
2024/03/21 10:28:56;;;;;;;0.80;0.80;;;6.40;99.90;;;;;;5096923;28;20196;-76
2024/03/21 10:31:22;;;;;;;1.75;0.95;;;6.40;99.90;;;;;;5096629;28;20590;-75
2024/03/21 10:33:53;;;;;;;1.38;1.27;;;6.40;99.90;;;;;;5097136;28;20210;-76
2024/03/21 10:36:19;;;;;;;0.60;0.60;;;6.50;99.90;;;;;;5095149;28;20214;-75
2024/03/21 10:38:45;;;;;;;0.60;0.60;;;6.60;99.90;;;;;;5096650;28;20631;-76
2024/03/21 10:41:25;;;;;;;0.80;0.80;;;6.60;99.90;;;;;;5096389;28;20275;-76
2024/03/21 10:44:06;;;;;;;0.65;0.65;;;6.60;99.90;;;;;;5096509;28;20207;-76
2024/03/21 10:46:41;;;;;;;0.68;0.68;;;6.80;99.90;;;;;;5096486;28;20676;-76
2024/03/21 10:49:08;;;;;;;0.60;0.60;;;6.90;99.90;;;;;;5096060;28;20651;-76
2024/03/21 10:51:43;;;;;;;0.77;0.77;;;7.00;99.90;;;;;;5075781;28;20250;-76
2024/03/21 10:54:13;;;;;;;0.60;0.60;;;7.30;99.90;;;;;;5075861;28;20288;-77
2024/03/21 10:56:40;;;;;;;0.70;0.70;;;7.30;99.90;;;;;;5076435;28;20201;-76
2024/03/21 10:59:06;;;;;;;0.45;0.45;;;7.40;99.90;;;;;;5078630;28;20250;-77
2024/03/21 11:01:39;;;;;;;0.70;0.70;;;7.90;99.90;;;;;;5077825;28;20221;-77
2024/03/21 11:04:14;;;;;;;0.70;0.70;;;8.20;99.90;;;;;;5075610;28;20228;-76
2024/03/21 11:06:42;;;;;;;0.70;0.70;;;8.40;99.90;;;;;;5074582;28;20208;-76
2024/03/21 11:09:12;;;;;;;0.70;0.70;;;8.60;99.90;;;;;;5076200;28;20201;-76
2024/03/21 11:11:37;;;;;;;0.60;0.60;;;8.70;99.90;;;;;;5087198;28;21505;-76
2024/03/21 11:14:07;;;;;;;0.70;0.70;;;8.70;99.90;;;;;;5096501;28;20283;-76
2024/03/21 11:16:33;;;;;;;0.70;0.70;;;8.60;99.90;;;;;;5096143;28;20192;-76
2024/03/21 11:18:58;;;;;;;0.70;0.70;;;8.50;99.90;;;;;;5096277;28;20668;-76
2024/03/21 11:21:25;;;;;;;0.70;0.70;;;8.30;99.90;;;;;;5094815;28;20279;-76
2024/03/21 11:23:50;;;;;;;0.70;0.70;;;8.10;99.90;;;;;;5095940;28;20224;-76
2024/03/21 11:26:18;;;;;;;0.60;0.60;;;7.70;99.90;;;;;;5097176;28;20247;-76
2024/03/21 11:28:45;;;;;;;0.70;0.70;;;7.50;99.90;;;;;;5094289;28;20208;-75
2024/03/21 11:31:18;;;;;;;0.70;0.70;;;7.30;99.90;;;;;;5095809;28;20197;-76
2024/03/21 11:33:45;;;;;;;0.70;0.70;;;7.20;99.90;;;;;;5095626;28;20208;-76
2024/03/21 11:36:11;;;;;;;0.68;0.68;;;7.20;99.90;;;;;;5094154;28;20666;-76
2024/03/21 11:38:36;;;;;;;0.70;0.70;;;7.20;99.90;;;;;;5094503;28;20304;-80
2024/03/21 11:41:04;;;;;;;0.60;0.60;;;7.10;99.90;;;;;;5101249;28;20258;-79
2024/03/21 11:43:29;;;;;;;0.63;0.63;;;7.10;99.90;;;;;;5099985;28;20204;-79
2024/03/21 11:46:00;;;;;;;0.70;0.70;;;7.00;99.90;;;;;;5100319;28;20212;-79
2024/03/21 11:48:26;;;;;;;0.60;0.60;;;7.10;99.90;;;;;;5100277;28;20200;-79
2024/03/21 11:50:53;;;;;;;0.60;0.60;;;7.10;99.90;;;;;;5100421;28;20203;-79
2024/03/21 11:53:20;;;;;;;0.60;0.60;;;7.20;99.90;;;;;;5098896;28;20200;-79
2024/03/21 11:55:46;;;;;;;0.60;0.60;;;7.20;99.90;;;;;;5099070;28;20207;-79
2024/03/21 11:58:13;;;;;;;0.70;0.70;;;7.20;99.90;;;;;;5097290;28;20204;-79
2024/03/21 12:00:39;;;;;;;0.70;0.70;;;7.20;99.90;;;;;;5095524;28;20229;-79
2024/03/21 12:03:08;;;;;;;0.95;0.95;;;7.30;99.90;;;;;;5093837;28;20200;-79
2024/03/21 12:05:34;;;;;;;0.70;0.70;;;7.30;99.90;;;;;;5097350;28;20232;-80
2024/03/21 12:07:59;;;;;;;0.68;0.68;;;7.30;99.90;;;;;;5096299;28;20242;-79
2024/03/21 12:10:25;;;;;;;0.60;0.60;;;7.50;99.90;;;;;;5095957;28;20334;-80
2024/03/21 12:12:51;;;;;;;0.60;0.60;;;7.60;99.90;;;;;;5095766;28;20204;-80
2024/03/21 12:15:17;;;;;;;0.70;0.70;;;7.60;99.90;;;;;;5095194;28;20203;-80
2024/03/21 12:17:42;;;;;;;0.85;0.85;;;7.60;99.90;;;;;;5094356;28;20249;-79
2024/03/21 12:20:08;;;;;;;6.90;2.88;;;7.70;99.90;;;;;;5093707;28;20211;-79
2024/03/21 12:22:34;;;;;;;0.93;0.93;;;7.60;99.90;;;;;;5094857;28;20211;-80
2024/03/21 12:25:02;;;;;;;1.17;1.15;;;7.70;99.90;;;;;;5095295;28;20262;-80
2024/03/21 12:27:28;;;;;;;0.60;0.60;;;7.70;99.90;;;;;;5098552;28;20218;-79
2024/03/21 12:29:55;;;;;;;0.70;0.70;;;7.80;99.90;;;;;;5097250;28;20272;-80
2024/03/21 12:32:20;;;;;;;0.70;0.70;;;7.80;99.90;;;;;;5097952;28;20249;-79
2024/03/21 12:34:46;;;;;;;0.70;0.70;;;7.80;99.90;;;;;;5096027;28;20204;-79
2024/03/21 12:37:12;;;;;;;0.60;0.60;;;7.80;99.90;;;;;;5099791;28;20706;-80
2024/03/21 12:39:42;;;;;;;0.70;0.70;;;7.90;99.90;;;;;;5100412;28;20223;-80
2024/03/21 12:42:12;;;;;;;0.63;0.63;;;8.10;99.90;;;;;;5096197;28;20288;-80
2024/03/21 12:44:38;;;;;;;0.68;0.68;;;8.30;99.90;;;;;;5077976;28;20216;-80
2024/03/21 12:47:04;;;;;;;0.70;0.70;;;8.30;99.90;;;;;;5077413;28;20205;-80
2024/03/21 12:49:30;;;;;;;0.70;0.70;;;8.20;99.90;;;;;;5075337;28;20204;-79
2024/03/21 12:51:56;;;;;;;0.70;0.70;;;8.10;99.90;;;;;;5074367;28;20624;-79
2024/03/21 12:54:21;;;;;;;0.70;0.70;;;7.90;99.90;;;;;;5074963;28;20250;-79
2024/03/21 12:56:47;;;;;;;0.60;0.60;;;7.90;99.90;;;;;;5075487;28;20212;-80
2024/03/21 12:59:13;;;;;;;0.60;0.60;;;7.80;99.90;;;;;;5075223;28;20262;-79
2024/03/21 13:01:39;;;;;;;0.60;0.60;;;7.80;99.90;;;;;;5079580;28;20664;-80
2024/03/21 13:04:04;;;;;;;0.70;0.70;;;7.50;99.90;;;;;;5078801;28;20224;-80